Time;durP1;ratioP1;P1;durP2;ratioP2;P2;SDS_P1;SDS_P2;PMS_P1;PMS_P2;Temp;Humidity;BMP_temperature;BMP_pressure;BME280_temperature;BME280_humidity;BME280_pressure;Samples;Min_cycle;Max_cycle;Signal;HPM_P1;HPM_P2
2021/07/11 00:08:35;;;;;;;13.77;11.02;;;22.00;68.10;;;;;;20938059;28;20102;-20
2021/07/11 00:18:35;;;;;;;13.55;11.05;;;22.00;68.10;;;;;;20928464;28;20040;-20
2021/07/11 00:28:37;;;;;;;11.38;10.18;;;22.00;68.20;;;;;;20931520;28;20180;-20
2021/07/11 00:38:38;;;;;;;11.48;10.27;;;22.00;68.20;;;;;;20917130;28;20036;-20
2021/07/11 00:48:40;;;;;;;11.48;10.13;;;22.00;68.10;;;;;;20893050;28;20040;-20
2021/07/11 00:58:41;;;;;;;10.15;9.13;;;22.00;68.20;;;;;;20927461;28;20100;-20
2021/07/11 01:09:00;;;;;;;12.85;9.82;;;22.00;68.20;;;;;;20919060;28;20025;-20
2021/07/11 01:19:25;;;;;;;13.52;10.25;;;22.00;68.30;;;;;;20904074;28;20543;-20
2021/07/11 01:29:26;;;;;;;12.60;11.30;;;22.00;68.40;;;;;;20905289;28;20029;-20
2021/07/11 01:39:28;;;;;;;13.00;10.13;;;21.90;68.50;;;;;;20915768;28;20153;-20
2021/07/11 01:49:29;;;;;;;11.80;10.63;;;21.90;68.50;;;;;;20905247;28;20479;-20
2021/07/11 01:59:29;;;;;;;10.80;9.13;;;21.90;68.50;;;;;;20903151;28;20032;-19
2021/07/11 02:09:30;;;;;;;14.48;10.57;;;21.90;68.50;;;;;;20901977;28;20029;-20
2021/07/11 02:19:35;;;;;;;10.50;8.85;;;21.90;68.50;;;;;;20900166;28;20037;-20
2021/07/11 02:29:43;;;;;;;12.82;10.48;;;21.90;68.50;;;;;;20915825;28;20032;-20
2021/07/11 02:39:47;;;;;;;10.67;9.57;;;21.90;68.50;;;;;;20927819;28;20021;-21
2021/07/11 02:49:52;;;;;;;10.15;8.73;;;21.90;68.50;;;;;;20914059;28;20017;-20
2021/07/11 02:59:53;;;;;;;10.88;9.77;;;21.90;68.50;;;;;;20934217;28;20080;-20
2021/07/11 03:09:54;;;;;;;10.52;9.45;;;21.80;68.50;;;;;;20936791;28;20394;-20
2021/07/11 03:19:57;;;;;;;10.68;9.65;;;21.80;68.50;;;;;;20937947;28;20090;-20
2021/07/11 03:30:12;;;;;;;10.35;9.38;;;21.80;68.40;;;;;;20939366;28;20123;-21
2021/07/11 03:40:22;;;;;;;8.93;8.02;;;21.80;68.40;;;;;;20929964;28;20039;-20
2021/07/11 03:50:25;;;;;;;9.43;8.52;;;21.80;68.30;;;;;;20933169;28;20032;-20
2021/07/11 04:00:26;;;;;;;9.27;8.43;;;21.80;68.30;;;;;;20946491;28;20109;-20
2021/07/11 04:10:28;;;;;;;8.63;7.82;;;21.80;68.30;;;;;;20938820;28;20115;-21
2021/07/11 04:20:30;;;;;;;9.05;8.15;;;21.70;68.10;;;;;;20930179;28;20052;-20
2021/07/11 04:30:32;;;;;;;10.27;8.65;;;21.80;68.20;;;;;;20936927;28;20029;-20
2021/07/11 04:40:32;;;;;;;9.25;8.10;;;21.80;68.20;;;;;;20926822;28;20097;-20
2021/07/11 04:50:33;;;;;;;9.68;8.68;;;21.80;68.20;;;;;;20925785;28;20502;-20
2021/07/11 05:00:34;;;;;;;10.23;8.10;;;21.80;68.10;;;;;;20949853;28;20024;-20
2021/07/11 05:10:34;;;;;;;9.57;8.67;;;21.80;68.00;;;;;;20937684;28;20032;-20
2021/07/11 05:20:35;;;;;;;9.02;8.15;;;21.80;68.00;;;;;;20921355;28;20479;-20
2021/07/11 05:30:36;;;;;;;9.60;8.63;;;21.80;68.00;;;;;;20932180;28;20035;-20
2021/07/11 05:40:36;;;;;;;9.52;8.60;;;21.80;68.00;;;;;;20923767;28;20043;-19
2021/07/11 05:50:37;;;;;;;9.65;8.75;;;21.80;67.90;;;;;;20884270;28;20037;-19
2021/07/11 06:00:38;;;;;;;9.23;8.32;;;21.80;67.90;;;;;;20938506;28;20029;-19
2021/07/11 06:10:38;;;;;;;8.60;7.80;;;21.90;67.90;;;;;;20948338;28;20423;-20
2021/07/11 06:20:39;;;;;;;9.23;8.40;;;21.80;67.80;;;;;;20938910;28;20522;-20
2021/07/11 06:30:40;;;;;;;10.15;9.20;;;21.80;67.70;;;;;;20945541;28;20029;-19
2021/07/11 06:40:40;;;;;;;9.73;8.70;;;21.80;67.60;;;;;;20877546;28;20026;-19
2021/07/11 06:50:43;;;;;;;9.30;8.40;;;21.80;67.60;;;;;;20874434;28;20561;-20
2021/07/11 07:00:44;;;;;;;9.43;8.52;;;21.80;67.70;;;;;;20875980;28;20041;-20
2021/07/11 07:10:44;;;;;;;10.65;9.68;;;21.80;67.80;;;;;;20908255;28;20511;-21
2021/07/11 07:20:45;;;;;;;10.38;9.48;;;21.80;67.60;;;;;;20874596;28;20037;-20
2021/07/11 07:30:45;;;;;;;11.93;9.15;;;21.80;67.60;;;;;;20891912;28;20032;-20
2021/07/11 07:40:46;;;;;;;11.57;9.80;;;21.80;67.80;;;;;;20911690;28;20032;-21
2021/07/11 07:50:47;;;;;;;24.00;12.60;;;21.90;67.90;;;;;;20906294;28;20041;-20
2021/07/11 08:00:48;;;;;;;19.45;10.25;;;21.90;68.00;;;;;;20931995;28;20028;-19
2021/07/11 08:10:48;;;;;;;23.05;11.30;;;21.90;68.10;;;;;;20892881;28;20550;-19
2021/07/11 08:20:51;;;;;;;28.55;12.27;;;22.00;68.20;;;;;;20930872;28;20502;-26
2021/07/11 08:30:52;;;;;;;14.98;12.15;;;22.00;68.00;;;;;;20936251;28;20025;-20
2021/07/11 08:40:52;;;;;;;23.85;12.65;;;22.00;68.20;;;;;;20889931;28;20506;-21
2021/07/11 08:51:00;;;;;;;22.42;12.70;;;22.20;68.50;;;;;;20930085;28;20037;-20
2021/07/11 09:01:00;;;;;;;17.30;12.13;;;22.50;68.80;;;;;;20935186;28;20034;-21
2021/07/11 09:11:02;;;;;;;21.17;12.30;;;22.60;69.10;;;;;;20946598;28;20033;-20
2021/07/11 09:21:13;;;;;;;19.55;12.68;;;22.70;69.10;;;;;;20936365;28;20674;-20
2021/07/11 09:31:16;;;;;;;15.25;11.00;;;22.70;69.20;;;;;;20915357;28;20052;-20
2021/07/11 09:41:25;;;;;;;12.85;11.02;;;22.60;69.10;;;;;;20921005;28;20082;-20
2021/07/11 09:51:27;;;;;;;21.88;11.32;;;22.70;68.80;;;;;;20879440;28;20029;-20
2021/07/11 10:01:29;;;;;;;15.45;11.60;;;22.60;69.00;;;;;;20896068;28;20025;-19
2021/07/11 10:11:30;;;;;;;13.02;11.38;;;22.50;68.80;;;;;;20919146;28;20118;-20
2021/07/11 10:21:34;;;;;;;14.50;11.32;;;22.40;68.70;;;;;;20923897;28;20499;-20
2021/07/11 10:31:44;;;;;;;13.43;11.27;;;22.40;68.60;;;;;;20927173;28;20505;-21
2021/07/11 10:41:52;;;;;;;13.35;11.77;;;22.40;68.60;;;;;;20923452;28;20513;-21
2021/07/11 10:51:58;;;;;;;15.02;11.10;;;22.30;68.40;;;;;;20938544;28;20037;-21
2021/07/11 11:02:02;;;;;;;11.73;10.52;;;22.30;68.50;;;;;;20938831;28;20418;-21
2021/07/11 11:12:20;;;;;;;12.93;11.45;;;22.30;68.50;;;;;;20941065;28;20103;-20
2021/07/11 11:22:21;;;;;;;13.20;10.60;;;22.30;68.40;;;;;;20937384;28;20093;-20
2021/07/11 11:32:26;;;;;;;10.25;9.23;;;22.30;68.40;;;;;;20942807;28;20045;-20
2021/07/11 11:42:27;;;;;;;11.68;10.57;;;22.40;68.00;;;;;;20909428;28;20481;-20
2021/07/11 11:52:28;;;;;;;12.43;10.32;;;22.40;67.90;;;;;;20905480;28;20125;-21
2021/07/11 12:02:28;;;;;;;11.50;10.10;;;22.40;68.00;;;;;;20909987;28;20418;-20
2021/07/11 12:12:29;;;;;;;10.85;9.77;;;22.40;67.90;;;;;;20915970;28;20030;-20
2021/07/11 12:22:32;;;;;;;10.63;9.60;;;22.40;68.00;;;;;;20892484;28;20107;-20
2021/07/11 12:32:58;;;;;;;10.25;9.23;;;22.50;68.00;;;;;;20898951;28;20043;-20
2021/07/11 12:43:17;;;;;;;9.55;8.68;;;22.50;68.40;;;;;;20915941;28;20048;-20
2021/07/11 12:53:18;;;;;;;9.38;8.15;;;22.50;67.80;;;;;;20909005;28;20037;-21
2021/07/11 13:03:25;;;;;;;8.77;7.97;;;22.50;67.60;;;;;;20912596;28;20033;-20
2021/07/11 13:13:26;;;;;;;9.90;7.93;;;22.50;67.30;;;;;;20934521;28;20037;-20
2021/07/11 13:23:26;;;;;;;12.53;8.10;;;22.50;67.50;;;;;;20901098;28;20035;-21
2021/07/11 13:33:27;;;;;;;8.50;7.70;;;22.50;67.50;;;;;;20903732;28;20040;-21
2021/07/11 13:43:27;;;;;;;9.20;7.20;;;22.50;67.90;;;;;;20931897;28;20035;-20
2021/07/11 13:53:28;;;;;;;8.13;7.32;;;22.40;67.70;;;;;;20903411;28;20477;-21
2021/07/11 14:03:29;;;;;;;10.18;6.95;;;22.40;67.90;;;;;;20890428;28;20205;-20
2021/07/11 14:13:30;;;;;;;7.90;7.20;;;22.50;68.00;;;;;;20930580;28;20032;-19
2021/07/11 14:23:31;;;;;;;7.75;7.05;;;22.40;67.90;;;;;;20934448;28;20430;-19
2021/07/11 14:33:31;;;;;;;9.32;6.43;;;22.40;67.90;;;;;;20944792;28;20059;-19
2021/07/11 14:43:32;;;;;;;7.10;6.15;;;22.40;67.90;;;;;;20932088;28;20033;-20
2021/07/11 14:53:33;;;;;;;6.60;5.87;;;22.50;67.60;;;;;;20936634;28;20434;-20
2021/07/11 15:03:34;;;;;;;8.10;6.63;;;22.50;67.30;;;;;;20943644;28;20621;-23
2021/07/11 15:13:35;;;;;;;13.43;7.20;;;22.50;67.00;;;;;;20943587;28;20503;-20
2021/07/11 15:23:36;;;;;;;6.82;5.30;;;22.50;67.10;;;;;;20932089;28;20043;-19
2021/07/11 15:33:36;;;;;;;8.98;5.13;;;22.40;66.70;;;;;;20940347;28;20123;-21
2021/07/11 15:43:37;;;;;;;7.00;4.90;;;22.50;66.80;;;;;;20927385;28;20491;-21
2021/07/11 15:53:37;;;;;;;6.05;5.55;;;22.50;67.10;;;;;;20931602;28;20043;-21
2021/07/11 16:03:38;;;;;;;5.65;5.07;;;22.40;67.10;;;;;;20908325;28;20105;-20
2021/07/11 16:13:39;;;;;;;7.43;4.40;;;22.50;67.50;;;;;;20879587;28;20055;-20
2021/07/11 16:23:39;;;;;;;5.93;4.55;;;22.50;67.80;;;;;;20929227;28;20056;-20
2021/07/11 16:33:40;;;;;;;5.38;4.88;;;22.50;67.70;;;;;;20937235;28;20040;-21
2021/07/11 16:43:40;;;;;;;12.70;5.53;;;22.50;67.80;;;;;;20922933;28;20043;-19
2021/07/11 16:53:41;;;;;;;10.50;6.57;;;22.50;68.00;;;;;;20929540;28;20394;-20
2021/07/11 17:03:42;;;;;;;18.40;5.65;;;22.50;68.30;;;;;;20940862;28;20028;-20
2021/07/11 17:13:43;;;;;;;12.90;6.10;;;22.50;69.10;;;;;;20931214;28;20488;-20
2021/07/11 17:23:44;;;;;;;13.70;6.75;;;22.80;68.60;;;;;;20914449;28;20029;-21
2021/07/11 17:33:45;;;;;;;10.57;6.65;;;22.80;69.20;;;;;;20947429;28;20029;-20
2021/07/11 17:43:45;;;;;;;12.82;8.10;;;22.90;70.20;;;;;;20923498;28;20562;-21
2021/07/11 17:53:46;;;;;;;15.95;7.60;;;23.00;70.60;;;;;;20912642;28;20113;-20
2021/07/11 18:03:48;;;;;;;21.17;8.18;;;23.00;70.40;;;;;;20943569;28;20033;-20
2021/07/11 18:13:48;;;;;;;26.13;7.97;;;23.00;70.10;;;;;;20927228;28;20029;-20
2021/07/11 18:23:49;;;;;;;19.03;6.73;;;23.00;70.10;;;;;;20930577;28;20181;-21
2021/07/11 18:33:49;;;;;;;17.83;6.88;;;22.90;70.10;;;;;;20927816;28;20678;-21
2021/07/11 18:43:50;;;;;;;12.70;5.57;;;22.70;70.30;;;;;;20931969;28;20033;-19
2021/07/11 18:53:51;;;;;;;13.45;7.85;;;22.70;70.10;;;;;;20934018;28;20499;-20
2021/07/11 19:03:52;;;;;;;13.07;5.85;;;22.70;70.10;;;;;;20904641;28;20053;-20
2021/07/11 19:13:54;;;;;;;9.85;6.45;;;22.60;70.30;;;;;;20913554;28;20041;-20
2021/07/11 19:23:55;;;;;;;12.07;5.88;;;22.60;71.00;;;;;;20943212;28;20037;-19
2021/07/11 19:33:56;;;;;;;11.52;6.28;;;22.50;70.70;;;;;;20916603;28;20091;-20
2021/07/11 19:43:57;;;;;;;7.65;6.13;;;22.60;70.80;;;;;;20850892;28;20111;-20
2021/07/11 19:53:57;;;;;;;7.78;7.03;;;22.50;71.30;;;;;;20861158;28;20426;-20
2021/07/11 20:03:58;;;;;;;7.82;6.15;;;22.60;71.70;;;;;;20898834;28;20029;-20
2021/07/11 20:13:59;;;;;;;7.22;6.50;;;22.50;72.20;;;;;;20889780;28;20032;-20
2021/07/11 20:23:59;;;;;;;8.37;6.93;;;22.60;72.00;;;;;;20921968;28;20048;-20
2021/07/11 20:34:01;;;;;;;7.35;6.65;;;22.60;72.00;;;;;;20932513;28;20471;-20
2021/07/11 20:44:01;;;;;;;7.80;7.00;;;22.60;71.90;;;;;;20908550;28;20056;-20
2021/07/11 20:54:02;;;;;;;11.52;7.20;;;22.60;71.90;;;;;;20913255;28;20028;-21
2021/07/11 21:04:03;;;;;;;7.55;6.85;;;22.50;71.70;;;;;;20933918;28;20044;-21
2021/07/11 21:14:03;;;;;;;7.88;7.07;;;22.60;71.50;;;;;;20922490;28;20120;-20
2021/07/11 21:24:04;;;;;;;8.80;7.45;;;22.60;71.90;;;;;;20915896;28;20400;-20
2021/07/11 21:34:05;;;;;;;8.43;7.40;;;22.60;71.80;;;;;;20929760;28;20021;-20
2021/07/11 21:44:07;;;;;;;7.15;6.55;;;22.50;71.80;;;;;;20929231;28;20040;-20
2021/07/11 21:54:09;;;;;;;7.75;7.00;;;22.50;71.60;;;;;;20918225;28;20398;-19
2021/07/11 22:04:10;;;;;;;9.43;8.52;;;22.60;71.60;;;;;;20920466;28;20403;-21
2021/07/11 22:14:10;;;;;;;9.13;8.20;;;22.60;71.70;;;;;;20928397;28;20033;-20
2021/07/11 22:24:11;;;;;;;7.50;6.80;;;22.50;71.60;;;;;;20910680;28;20037;-20
2021/07/11 22:34:11;;;;;;;7.70;7.00;;;22.50;71.40;;;;;;20892110;28;20602;-20
2021/07/11 22:44:12;;;;;;;8.07;6.55;;;22.50;71.10;;;;;;20923835;28;20036;-20
2021/07/11 22:54:13;;;;;;;12.88;8.05;;;22.40;70.90;;;;;;20870086;28;20095;-20
2021/07/11 23:04:13;;;;;;;8.73;7.60;;;22.40;71.30;;;;;;20885555;28;20029;-21
2021/07/11 23:14:14;;;;;;;12.37;7.80;;;22.40;71.90;;;;;;20847860;28;20177;-20
2021/07/11 23:24:14;;;;;;;10.93;7.70;;;22.40;72.10;;;;;;20902662;28;20475;-20
2021/07/11 23:34:15;;;;;;;13.10;7.93;;;22.40;72.00;;;;;;20938532;28;20574;-21
2021/07/11 23:44:15;;;;;;;10.35;7.57;;;22.30;71.80;;;;;;20941550;28;20037;-21
2021/07/11 23:54:16;;;;;;;7.80;7.00;;;22.40;71.80;;;;;;20939673;28;20523;-20
